createdAt,value
2023-01-15T00:00:50.644Z,44.67
2023-01-15T00:04:14.096Z,38.50
2023-01-15T00:07:16.634Z,44.28
2023-01-15T00:10:19.968Z,39.08
2023-01-15T00:13:23.053Z,39.30
2023-01-15T00:16:27.654Z,34.97
2023-01-15T00:19:30.270Z,38.33
2023-01-15T00:22:33.393Z,38.40
2023-01-15T00:25:54.685Z,36.70
2023-01-15T00:28:57.869Z,34.90
2023-01-15T00:32:08.494Z,38.40
2023-01-15T00:35:17.456Z,33.55
2023-01-15T00:38:20.023Z,35.25
2023-01-15T00:41:23.581Z,34.38
2023-01-15T00:44:26.119Z,35.15
2023-01-15T00:47:29.267Z,32.55
2023-01-15T00:50:31.959Z,34.80
2023-01-15T00:53:35.151Z,34.70
2023-01-15T00:56:37.690Z,34.83
2023-01-15T00:59:40.911Z,34.50
2023-01-15T01:02:43.519Z,34.63
2023-01-15T01:05:46.706Z,35.38
2023-01-15T01:08:49.405Z,32.90
2023-01-15T01:11:52.542Z,31.10
2023-01-15T01:14:55.064Z,32.20
2023-01-15T01:17:58.140Z,32.83
2023-01-15T01:21:04.935Z,29.37
2023-01-15T01:24:10.573Z,32.80
2023-01-15T01:27:13.100Z,32.25
2023-01-15T01:30:16.525Z,30.88
2023-01-15T01:33:19.097Z,32.88
2023-01-15T01:36:28.589Z,29.67
2023-01-15T01:39:31.134Z,29.67
2023-01-15T01:42:34.383Z,30.37
2023-01-15T01:45:36.946Z,32.10
2023-01-15T01:48:40.073Z,32.70
2023-01-15T01:51:50.589Z,35.63
2023-01-15T01:54:55.678Z,30.02
2023-01-15T01:58:00.879Z,37.78
2023-01-15T02:01:05.237Z,29.05
2023-01-15T02:04:10.584Z,31.60
2023-01-15T02:07:13.488Z,29.80
2023-01-15T02:10:17.009Z,25.62
2023-01-15T02:16:43.526Z,29.52
2023-01-15T02:20:01.956Z,30.42
2023-01-15T02:23:33.584Z,31.87
2023-01-15T02:27:02.345Z,29.48
2023-01-15T02:30:11.995Z,29.15
2023-01-15T02:33:21.532Z,30.15
2023-01-15T02:36:28.899Z,28.75
2023-01-15T02:39:34.723Z,29.75
2023-01-15T02:42:40.972Z,28.08
2023-01-15T02:45:49.475Z,27.80
2023-01-15T02:48:55.592Z,33.10
2023-01-15T02:52:09.149Z,26.12
2023-01-15T02:55:26.174Z,26.90
2023-01-15T02:58:33.693Z,27.00
2023-01-15T03:01:45.484Z,27.48
2023-01-15T03:04:56.608Z,30.23
2023-01-15T03:08:04.864Z,32.92
2023-01-15T03:11:11.299Z,25.75
2023-01-15T03:14:21.813Z,30.08
2023-01-15T03:17:47.147Z,26.77
2023-01-15T03:20:55.739Z,27.67
2023-01-15T03:24:02.217Z,25.70
2023-01-15T03:27:08.185Z,28.10
2023-01-15T03:30:19.056Z,27.83
2023-01-15T03:33:22.108Z,27.42
2023-01-15T03:36:25.811Z,27.87
2023-01-15T03:39:29.962Z,30.20
2023-01-15T03:43:14.622Z,26.98
2023-01-15T03:46:32.990Z,28.38
2023-01-15T03:50:04.805Z,31.20
2023-01-15T03:53:20.101Z,31.55
2023-01-15T03:56:48.346Z,28.92
2023-01-15T03:59:59.248Z,26.62
2023-01-15T04:03:06.555Z,25.83
2023-01-15T04:06:10.580Z,28.12
2023-01-15T04:09:15.030Z,28.48
2023-01-15T04:12:18.871Z,27.58
2023-01-15T04:15:22.684Z,25.90
2023-01-15T04:18:25.869Z,29.08
2023-01-15T04:21:29.990Z,30.40
2023-01-15T04:24:36.265Z,27.42
2023-01-15T04:27:39.038Z,26.87
2023-01-15T04:30:43.718Z,29.23
2023-01-15T04:33:46.696Z,23.73
2023-01-15T04:36:49.545Z,26.58
2023-01-15T04:39:52.361Z,26.83
2023-01-15T04:43:14.944Z,28.75
2023-01-15T04:46:24.141Z,26.45
2023-01-15T04:49:27.543Z,24.15
2023-01-15T04:52:30.372Z,23.08
2023-01-15T04:55:34.043Z,26.85
2023-01-15T04:58:37.358Z,26.67
2023-01-15T05:04:50.661Z,25.30
2023-01-15T05:07:54.097Z,24.12
2023-01-15T05:10:57.148Z,22.80
2023-01-15T05:14:00.105Z,19.80
2023-01-15T05:17:02.939Z,23.98
2023-01-15T05:20:06.353Z,21.92
2023-01-15T05:23:09.312Z,21.60
2023-01-15T05:26:13.009Z,19.62
2023-01-15T05:29:15.882Z,19.92
2023-01-15T05:32:18.700Z,20.25
2023-01-15T05:35:21.704Z,17.90
2023-01-15T05:38:24.533Z,19.80
2023-01-15T05:41:46.202Z,20.85
2023-01-15T05:44:49.011Z,21.42
2023-01-15T05:47:53.692Z,20.00
2023-01-15T05:50:56.592Z,23.65
2023-01-15T05:53:59.893Z,24.02
2023-01-15T05:57:03.350Z,22.17
2023-01-15T06:03:14.995Z,21.50
2023-01-15T06:06:19.042Z,20.65
2023-01-15T06:12:26.301Z,20.08
2023-01-15T06:15:28.879Z,18.70
2023-01-15T06:18:33.573Z,20.70
2023-01-15T06:21:36.646Z,20.88
2023-01-15T06:24:39.789Z,22.05
2023-01-15T06:27:44.535Z,21.50
2023-01-15T06:30:47.733Z,19.80
2023-01-15T06:33:50.391Z,20.17
2023-01-15T06:36:53.693Z,17.67
2023-01-15T06:39:56.286Z,20.67
2023-01-15T06:43:18.084Z,21.92
2023-01-15T06:46:39.593Z,23.15
2023-01-15T06:49:42.751Z,20.98
2023-01-15T06:52:45.612Z,23.85
2023-01-15T06:55:49.060Z,21.25
2023-01-15T06:58:51.598Z,25.80
2023-01-15T07:01:54.927Z,21.37
2023-01-15T07:04:57.844Z,20.35
2023-01-15T07:08:01.001Z,22.48
2023-01-15T07:11:09.367Z,21.57
2023-01-15T07:14:13.673Z,21.48
2023-01-15T07:17:16.194Z,24.67
2023-01-15T07:20:21.658Z,17.42
2023-01-15T07:23:25.807Z,23.30
2023-01-15T07:26:29.100Z,23.35
2023-01-15T07:29:31.815Z,23.58
2023-01-15T07:32:34.989Z,23.62
2023-01-15T07:35:37.647Z,23.63
2023-01-15T07:38:40.764Z,23.05
2023-01-15T07:42:01.783Z,25.47
2023-01-15T07:45:27.532Z,29.35
2023-01-15T07:48:48.921Z,23.83
2023-01-15T07:51:52.017Z,25.17
2023-01-15T07:54:54.546Z,25.77
2023-01-15T07:57:57.791Z,27.42
2023-01-15T08:01:00.632Z,24.77
2023-01-15T08:07:06.529Z,27.10
2023-01-15T08:13:34.825Z,27.42
2023-01-15T08:16:38.041Z,24.52
2023-01-15T08:19:40.596Z,25.40
2023-01-15T08:22:44.765Z,24.35
2023-01-15T08:25:47.286Z,28.92
2023-01-15T08:28:50.356Z,25.88
2023-01-15T08:31:52.952Z,25.33
2023-01-15T08:34:56.104Z,28.12
2023-01-15T08:37:58.657Z,27.70
2023-01-15T08:41:03.743Z,26.08
2023-01-15T08:44:06.715Z,28.83
2023-01-15T08:47:09.891Z,24.98
2023-01-15T08:50:12.823Z,26.03
2023-01-15T08:56:20.698Z,26.35
2023-01-15T08:59:23.787Z,27.13
2023-01-15T09:02:27.813Z,26.90
2023-01-15T09:05:31.036Z,24.77
2023-01-15T09:08:33.709Z,30.63
2023-01-15T09:11:37.012Z,28.27
2023-01-15T09:14:58.154Z,31.02
2023-01-15T09:18:02.785Z,28.50
2023-01-15T09:21:06.708Z,27.83
2023-01-15T09:24:09.807Z,24.12
2023-01-15T09:27:12.610Z,27.33
2023-01-15T09:30:20.983Z,23.55
2023-01-15T09:33:23.700Z,27.10
2023-01-15T09:36:29.622Z,22.15
2023-01-15T09:39:32.299Z,21.20
2023-01-15T09:42:35.325Z,24.55
2023-01-15T09:45:44.243Z,25.48
2023-01-15T09:49:11.076Z,20.88
2023-01-15T09:52:30.809Z,20.95
2023-01-15T09:55:41.490Z,21.20
2023-01-15T09:58:44.438Z,18.17
2023-01-15T10:01:50.061Z,18.12
2023-01-15T10:04:57.619Z,22.48
2023-01-15T10:08:24.602Z,19.23
2023-01-15T10:12:03.284Z,19.83
2023-01-15T10:15:15.121Z,17.85
2023-01-15T10:18:21.415Z,19.08
2023-01-15T10:21:42.971Z,19.05
2023-01-15T10:24:55.992Z,16.35
2023-01-15T10:28:17.991Z,16.87
2023-01-15T10:31:24.589Z,14.50
2023-01-15T10:34:30.385Z,16.30
2023-01-15T10:37:43.158Z,16.77
2023-01-15T10:41:32.260Z,16.90
2023-01-15T10:44:55.013Z,17.33
2023-01-15T10:48:10.016Z,16.60
2023-01-15T10:51:20.833Z,12.88
2023-01-15T10:54:42.553Z,13.55
2023-01-15T10:58:10.320Z,14.82
2023-01-15T11:01:19.827Z,14.57
2023-01-15T11:04:23.705Z,11.07
2023-01-15T11:07:57.925Z,13.38
2023-01-15T11:11:57.415Z,13.62
2023-01-15T11:15:18.891Z,14.75
2023-01-15T11:18:54.641Z,14.13
2023-01-15T11:21:57.519Z,14.65
2023-01-15T11:25:04.106Z,13.13
2023-01-15T11:28:09.807Z,13.38
2023-01-15T11:31:14.560Z,13.32
2023-01-15T11:34:22.306Z,14.50
2023-01-15T11:37:25.651Z,16.08
2023-01-15T11:43:50.389Z,16.12
2023-01-15T11:47:14.328Z,15.48
2023-01-15T11:50:37.483Z,15.90
2023-01-15T11:54:03.647Z,15.13
2023-01-15T11:57:07.309Z,18.60
2023-01-15T12:00:23.445Z,15.45
2023-01-15T12:03:30.415Z,15.90
2023-01-15T12:06:36.670Z,17.42
2023-01-15T12:09:49.866Z,19.20
2023-01-15T12:13:04.777Z,16.83
2023-01-15T12:16:13.402Z,16.17
2023-01-15T12:19:40.627Z,16.50
2023-01-15T12:23:31.300Z,15.93
2023-01-15T12:26:49.520Z,17.30
2023-01-15T12:30:00.319Z,17.23
2023-01-15T12:33:31.041Z,18.58
2023-01-15T12:36:44.919Z,17.87
2023-01-15T12:39:52.463Z,20.83
2023-01-15T12:43:15.293Z,18.33
2023-01-15T12:46:31.485Z,16.67
2023-01-15T12:49:45.207Z,18.17
2023-01-15T12:52:54.748Z,19.33
2023-01-15T12:56:12.385Z,18.75
2023-01-15T12:59:26.719Z,19.98
2023-01-15T13:02:54.565Z,20.73
2023-01-15T13:06:05.511Z,21.30
2023-01-15T13:09:44.705Z,18.90
2023-01-15T13:12:47.851Z,17.20
2023-01-15T13:16:18.625Z,19.12
2023-01-15T13:19:49.356Z,19.85
2023-01-15T13:23:07.707Z,19.98
2023-01-15T13:26:42.044Z,19.73
2023-01-15T13:30:15.945Z,20.33
2023-01-15T13:33:24.801Z,21.37
2023-01-15T13:36:48.333Z,18.87
2023-01-15T13:39:56.655Z,21.95
2023-01-15T13:42:59.790Z,19.58
2023-01-15T13:46:05.615Z,19.08
2023-01-15T13:49:20.040Z,23.00
2023-01-15T13:52:35.422Z,19.87
2023-01-15T13:55:43.569Z,20.20
2023-01-15T13:58:56.178Z,22.87
2023-01-15T14:01:59.111Z,22.17
2023-01-15T14:08:17.382Z,22.10
2023-01-15T14:11:35.911Z,18.80
2023-01-15T14:15:15.905Z,18.05
2023-01-15T14:18:40.678Z,19.90
2023-01-15T14:21:58.406Z,18.83
2023-01-15T14:25:15.447Z,20.42
2023-01-15T14:28:29.913Z,18.42
2023-01-15T14:31:42.841Z,16.73
2023-01-15T14:34:56.051Z,19.85
2023-01-15T14:38:05.720Z,22.10
2023-01-15T14:41:08.376Z,18.92
2023-01-15T14:44:11.584Z,18.77
2023-01-15T14:47:28.996Z,18.73
2023-01-15T14:50:33.793Z,18.75
2023-01-15T14:53:52.062Z,20.67
2023-01-15T14:56:59.820Z,17.60
2023-01-15T15:00:05.344Z,20.92
2023-01-15T15:03:17.388Z,19.95
2023-01-15T15:06:21.456Z,23.15
2023-01-15T15:09:36.662Z,19.80
2023-01-15T15:13:36.221Z,21.35
2023-01-15T15:16:47.488Z,20.12
2023-01-15T15:20:00.850Z,22.00
2023-01-15T15:23:33.110Z,19.80
2023-01-15T15:26:38.835Z,20.75
2023-01-15T15:29:41.993Z,20.10
2023-01-15T15:32:45.140Z,21.17
2023-01-15T15:35:58.362Z,22.95
2023-01-15T15:39:15.735Z,21.77
2023-01-15T15:42:44.362Z,25.70
2023-01-15T15:46:14.010Z,21.62
2023-01-15T15:49:20.267Z,23.95
2023-01-15T15:52:24.082Z,25.35
2023-01-15T15:55:42.702Z,27.62
2023-01-15T15:58:46.513Z,23.45
2023-01-15T16:01:49.841Z,24.77
2023-01-15T16:04:59.425Z,24.58
2023-01-15T16:08:29.805Z,26.62
2023-01-15T16:11:34.591Z,23.30
2023-01-15T16:14:38.454Z,24.83
2023-01-15T16:17:42.919Z,28.52
2023-01-15T16:20:46.102Z,26.75
2023-01-15T16:24:03.606Z,24.75
2023-01-15T16:27:14.439Z,24.73
2023-01-15T16:30:17.892Z,27.08
2023-01-15T16:36:25.551Z,28.25
2023-01-15T16:39:40.062Z,28.20
2023-01-15T16:42:44.762Z,30.30
2023-01-15T16:46:29.016Z,28.98
2023-01-15T16:49:34.402Z,26.52
2023-01-15T16:52:51.394Z,28.27
2023-01-15T16:55:57.050Z,29.25
2023-01-15T16:58:59.916Z,29.73
2023-01-15T17:02:02.972Z,27.42
2023-01-15T17:05:23.657Z,28.17
2023-01-15T17:08:39.311Z,30.62
2023-01-15T17:11:42.237Z,30.80
2023-01-15T17:14:45.135Z,29.92
2023-01-15T17:17:52.233Z,30.80
2023-01-15T17:20:56.039Z,34.80
2023-01-15T17:24:04.143Z,30.48
2023-01-15T17:27:08.379Z,34.53
2023-01-15T17:30:15.799Z,33.80
2023-01-15T17:33:20.943Z,30.98
2023-01-15T17:36:24.828Z,36.00
2023-01-15T17:39:28.221Z,34.92
2023-01-15T17:42:31.527Z,32.28
2023-01-15T17:45:34.873Z,32.08
2023-01-15T17:48:39.163Z,30.98
2023-01-15T17:51:45.415Z,35.00
2023-01-15T17:58:32.055Z,34.40
2023-01-15T18:02:07.473Z,34.90
2023-01-15T18:05:30.706Z,32.42
2023-01-15T18:08:34.714Z,36.85
2023-01-15T18:11:37.946Z,36.75
2023-01-15T18:14:40.952Z,35.40
2023-01-15T18:17:44.747Z,35.53
2023-01-15T18:20:47.583Z,35.55
2023-01-15T18:23:50.396Z,38.72
2023-01-15T18:26:53.342Z,35.67
2023-01-15T18:29:57.503Z,40.17
2023-01-15T18:33:02.632Z,37.72
2023-01-15T18:36:12.240Z,38.83
2023-01-15T18:39:15.375Z,36.75
2023-01-15T18:42:37.046Z,36.40
2023-01-15T18:45:58.146Z,43.38
2023-01-15T18:49:00.986Z,38.97
2023-01-15T18:52:22.674Z,40.53
2023-01-15T18:55:28.621Z,45.42
2023-01-15T18:58:31.490Z,42.47
2023-01-15T19:01:35.273Z,43.83
2023-01-15T19:04:38.329Z,41.05
2023-01-15T19:07:44.954Z,44.58
2023-01-15T19:10:47.770Z,42.65
2023-01-15T19:14:10.564Z,43.80
2023-01-15T19:17:39.222Z,45.63
2023-01-15T19:20:42.130Z,41.10
2023-01-15T19:23:44.988Z,42.22
2023-01-15T19:26:47.881Z,43.80
2023-01-15T19:29:52.173Z,44.85
2023-01-15T19:32:56.564Z,45.85
2023-01-15T19:35:59.565Z,45.00
2023-01-15T19:39:02.743Z,46.28
2023-01-15T19:42:24.386Z,51.08
2023-01-15T19:45:46.475Z,44.17
2023-01-15T19:49:08.041Z,48.97
2023-01-15T19:52:30.092Z,48.13
2023-01-15T19:55:33.686Z,44.75
2023-01-15T19:58:37.245Z,41.35
2023-01-15T20:01:40.339Z,49.17
2023-01-15T20:04:45.627Z,45.10
2023-01-15T20:07:48.462Z,44.38
2023-01-15T20:10:51.529Z,43.20
2023-01-15T20:13:54.645Z,44.45
2023-01-15T20:16:57.535Z,43.78
2023-01-15T20:20:00.315Z,45.70
2023-01-15T20:23:03.268Z,43.45
2023-01-15T20:26:08.129Z,43.33
2023-01-15T20:29:11.202Z,47.67
2023-01-15T20:32:14.201Z,46.72
2023-01-15T20:35:22.107Z,43.17
2023-01-15T20:38:25.091Z,44.38
2023-01-15T20:41:46.920Z,40.95
2023-01-15T20:44:56.269Z,43.35
2023-01-15T20:48:14.351Z,40.47
2023-01-15T20:51:19.704Z,41.92
2023-01-15T20:54:24.601Z,39.78
2023-01-15T20:57:27.477Z,39.35
2023-01-15T21:00:30.844Z,41.22
2023-01-15T21:03:33.744Z,36.72
2023-01-15T21:06:36.678Z,39.00
2023-01-15T21:09:39.509Z,39.45
2023-01-15T21:12:42.461Z,41.35
2023-01-15T21:15:45.353Z,33.97
2023-01-15T21:18:49.172Z,36.00
2023-01-15T21:21:51.989Z,38.10
2023-01-15T21:24:54.857Z,38.17
2023-01-15T21:27:58.143Z,32.58
2023-01-15T21:31:04.119Z,32.00
2023-01-15T21:34:07.028Z,29.77
2023-01-15T21:37:09.903Z,32.22
2023-01-15T21:40:12.997Z,30.48
2023-01-15T21:43:37.832Z,26.42
2023-01-15T21:49:44.247Z,26.60
2023-01-15T21:52:48.526Z,30.73
2023-01-15T21:55:52.221Z,34.05
2023-01-15T21:58:55.203Z,33.67
2023-01-15T22:01:59.381Z,31.73
2023-01-15T22:05:04.040Z,29.20
2023-01-15T22:08:08.442Z,27.05
2023-01-15T22:11:11.696Z,30.75
2023-01-15T22:14:16.351Z,28.45
2023-01-15T22:17:19.526Z,28.15
2023-01-15T22:20:22.077Z,27.63
2023-01-15T22:23:25.380Z,29.15
2023-01-15T22:26:31.889Z,32.15
2023-01-15T22:29:39.998Z,29.70
2023-01-15T22:32:42.671Z,29.65
2023-01-15T22:35:55.244Z,33.72
2023-01-15T22:38:57.780Z,40.08
2023-01-15T22:42:19.710Z,35.33
2023-01-15T22:45:25.127Z,37.78
2023-01-15T22:48:28.554Z,36.83
2023-01-15T22:51:31.154Z,41.90
2023-01-15T22:54:34.628Z,41.42
2023-01-15T22:57:37.168Z,38.47
2023-01-15T23:00:40.509Z,38.88
2023-01-15T23:03:43.057Z,35.25
2023-01-15T23:06:46.787Z,38.22
2023-01-15T23:09:49.313Z,35.83
2023-01-15T23:12:52.397Z,36.40
2023-01-15T23:15:59.118Z,33.87
2023-01-15T23:19:02.940Z,36.38
2023-01-15T23:22:05.670Z,35.80
2023-01-15T23:25:09.310Z,34.85
2023-01-15T23:28:11.827Z,36.05
2023-01-15T23:31:15.008Z,33.40
2023-01-15T23:34:17.783Z,34.25
2023-01-15T23:37:20.846Z,33.38
2023-01-15T23:40:23.385Z,31.60
2023-01-15T23:43:45.088Z,31.95
2023-01-15T23:46:48.255Z,31.62
2023-01-15T23:49:51.604Z,28.12
2023-01-15T23:52:54.252Z,30.80
2023-01-15T23:55:59.011Z,27.05
2023-01-15T23:59:01.601Z,28.10
